Cranberry Portage, Canada
Current Conditions -  °F | °C
As of 11:00 AM on Thursday 30 Oct 2014 (Local Time) from CYFO Reporting Station
Few Clouds Few Clouds  
Wind Chill: 15°   Ceiling: Unl
Heat Index: 25°   Visibility: 15mi
Dew Point: 18°   Wind: 9mph
Humidity: 74%   Direction: 340°NNW
Pressure: 30.49"   Gusts: NA
Location:  54.59°N, 101.38°W
Report Text: CYFO 301600Z 34008KT 15SM FEW010 M04/M08 A3049 RMK SF1 SLP344
Loading
Personal Weather Stations






























Interactive Weather Map
Tropical Storm Tracking
New forecast layout! Learn more

10-Day Weather Forecast

Advertisements
Track Severe Weather on mobile